createdAt,value
2019-05-21T00:00:53.836Z,80.00
2019-05-21T00:04:07.595Z,80.02
2019-05-21T00:07:21.526Z,80.35
2019-05-21T00:10:35.020Z,80.24
2019-05-21T00:13:48.597Z,80.03
2019-05-21T00:17:02.101Z,80.20
2019-05-21T00:20:16.209Z,80.07
2019-05-21T00:23:30.006Z,79.55
2019-05-21T00:26:43.818Z,79.95
2019-05-21T00:30:34.063Z,79.66
2019-05-21T00:34:24.361Z,80.09
2019-05-21T00:38:14.688Z,80.08
2019-05-21T00:41:58.469Z,80.61
2019-05-21T00:45:12.350Z,80.86
2019-05-21T00:48:26.212Z,81.39
2019-05-21T00:51:39.736Z,81.09
2019-05-21T00:54:53.718Z,81.46
2019-05-21T00:58:07.255Z,81.58
2019-05-21T01:01:20.760Z,82.07
2019-05-21T01:04:34.690Z,81.99
2019-05-21T01:07:48.515Z,82.10
2019-05-21T01:11:02.459Z,81.50
2019-05-21T01:14:16.487Z,81.88
2019-05-21T01:17:29.990Z,81.99
2019-05-21T01:20:43.495Z,81.61
2019-05-21T01:23:57.028Z,81.40
2019-05-21T01:27:10.597Z,81.05
2019-05-21T01:30:24.530Z,81.45
2019-05-21T01:33:38.041Z,81.35
2019-05-21T01:36:52.331Z,81.65
2019-05-21T01:40:06.047Z,81.44
2019-05-21T01:43:19.800Z,81.55
2019-05-21T01:46:33.635Z,81.59
2019-05-21T01:49:47.458Z,81.15
2019-05-21T01:53:00.951Z,81.35
2019-05-21T01:56:14.451Z,81.49
2019-05-21T01:59:28.032Z,81.56
2019-05-21T02:02:41.582Z,81.30
2019-05-21T02:05:55.531Z,81.76
2019-05-21T02:09:09.044Z,81.84
2019-05-21T02:12:22.523Z,81.32
2019-05-21T02:15:36.222Z,81.70
2019-05-21T02:18:49.729Z,81.48
2019-05-21T02:22:03.583Z,81.69
2019-05-21T02:25:17.467Z,81.53
2019-05-21T02:28:31.298Z,81.89
2019-05-21T02:31:44.813Z,81.92
2019-05-21T02:34:58.297Z,82.27
2019-05-21T02:38:11.773Z,82.35
2019-05-21T02:41:25.582Z,82.61
2019-05-21T02:44:39.281Z,82.20
2019-05-21T02:47:53.050Z,82.56
2019-05-21T02:51:06.765Z,82.54
2019-05-21T02:54:38.855Z,82.21
2019-05-21T02:57:41.354Z,82.42
2019-05-21T03:01:18.106Z,82.36
2019-05-21T03:04:31.638Z,82.33
2019-05-21T03:07:45.141Z,81.82
2019-05-21T03:10:58.705Z,82.28
2019-05-21T03:14:12.303Z,82.14
2019-05-21T03:17:26.035Z,82.03
2019-05-21T03:20:39.528Z,81.58
2019-05-21T03:23:53.215Z,82.38
2019-05-21T03:27:06.698Z,81.71
2019-05-21T03:30:20.373Z,81.84
2019-05-21T03:33:34.130Z,82.00
2019-05-21T03:36:47.601Z,81.65
2019-05-21T03:40:01.348Z,81.21
2019-05-21T03:43:14.928Z,81.24
2019-05-21T03:46:28.401Z,81.73
2019-05-21T03:49:42.486Z,82.18
2019-05-21T03:52:56.304Z,82.19
2019-05-21T03:56:09.897Z,83.15
2019-05-21T03:59:23.468Z,83.95
2019-05-21T04:02:36.968Z,84.00
2019-05-21T04:05:50.800Z,84.56
2019-05-21T04:09:05.667Z,84.97
2019-05-21T04:12:19.373Z,85.28
2019-05-21T04:15:35.540Z,85.68
2019-05-21T04:19:05.072Z,85.74
2019-05-21T04:22:18.685Z,86.71
2019-05-21T04:25:32.185Z,87.79
2019-05-21T04:28:45.681Z,88.11
2019-05-21T04:31:59.639Z,89.05
2019-05-21T04:35:13.273Z,89.44
2019-05-21T04:38:26.863Z,89.56
2019-05-21T04:41:40.353Z,89.93
2019-05-21T04:44:53.835Z,90.09
2019-05-21T04:48:07.657Z,90.82
2019-05-21T04:51:21.268Z,91.36
2019-05-21T04:54:35.010Z,91.44
2019-05-21T04:57:48.540Z,90.89
2019-05-21T05:01:02.150Z,91.38
2019-05-21T05:04:21.150Z,91.44
2019-05-21T05:07:31.423Z,91.86
2019-05-21T05:10:44.886Z,91.95
2019-05-21T05:16:38.322Z,91.74
2019-05-21T05:19:51.819Z,92.36
2019-05-21T05:23:05.628Z,93.08
2019-05-21T05:26:19.565Z,93.26
2019-05-21T05:29:33.044Z,93.60
2019-05-21T05:32:46.620Z,93.27
2019-05-21T05:36:00.113Z,93.10
2019-05-21T05:39:13.874Z,92.71
2019-05-21T05:42:27.487Z,92.77
2019-05-21T05:45:41.345Z,93.02
2019-05-21T05:49:01.856Z,93.03
2019-05-21T05:52:15.596Z,93.15
2019-05-21T05:55:29.174Z,92.81
2019-05-21T05:58:42.712Z,92.52
2019-05-21T06:01:56.184Z,92.76
2019-05-21T06:05:10.160Z,92.46
2019-05-21T06:08:23.994Z,92.68
2019-05-21T06:15:07.664Z,92.60
2019-05-21T06:18:21.235Z,92.52
2019-05-21T06:21:34.841Z,92.08
2019-05-21T06:24:48.320Z,92.47
2019-05-21T06:28:01.885Z,92.47
2019-05-21T06:31:15.465Z,92.17
2019-05-21T06:34:29.281Z,92.59
2019-05-21T06:37:43.138Z,92.31
2019-05-21T06:40:57.057Z,92.05
2019-05-21T06:44:11.149Z,91.54
2019-05-21T06:47:25.102Z,91.81
2019-05-21T06:50:38.987Z,92.03
2019-05-21T06:53:52.667Z,92.36
2019-05-21T06:57:06.431Z,92.43
2019-05-21T07:00:20.300Z,92.38
2019-05-21T07:03:36.520Z,92.56
2019-05-21T07:06:50.555Z,92.69
2019-05-21T07:10:06.580Z,93.04
2019-05-21T07:13:20.336Z,92.69
2019-05-21T07:16:34.055Z,92.42
2019-05-21T07:19:47.803Z,92.33
2019-05-21T07:23:01.540Z,92.68
2019-05-21T07:26:15.417Z,92.38
2019-05-21T07:29:29.199Z,92.91
2019-05-21T07:32:43.085Z,92.61
2019-05-21T07:35:56.892Z,93.28
2019-05-21T07:39:10.781Z,93.08
2019-05-21T07:42:24.996Z,93.15
2019-05-21T07:45:38.796Z,93.04
2019-05-21T07:48:53.903Z,92.92
2019-05-21T07:52:07.915Z,93.43
2019-05-21T07:55:21.966Z,93.43
2019-05-21T07:58:36.033Z,93.52
2019-05-21T08:01:51.019Z,93.53
2019-05-21T08:05:05.825Z,93.48
2019-05-21T08:08:19.994Z,92.75
2019-05-21T08:11:34.140Z,93.58
2019-05-21T08:14:47.894Z,93.30
2019-05-21T08:18:01.790Z,93.47
2019-05-21T08:21:15.519Z,93.14
2019-05-21T08:24:29.583Z,93.08
2019-05-21T08:27:43.301Z,93.40
2019-05-21T08:30:56.982Z,93.42
2019-05-21T08:34:10.891Z,93.20
2019-05-21T08:37:24.986Z,93.27
2019-05-21T08:40:38.817Z,93.65
2019-05-21T08:43:52.658Z,92.81
2019-05-21T08:47:06.768Z,92.57
2019-05-21T08:50:20.549Z,91.89
2019-05-21T08:53:34.456Z,92.83
2019-05-21T08:56:47.941Z,92.76
2019-05-21T09:00:01.744Z,92.62
2019-05-21T09:03:15.713Z,92.70
2019-05-21T09:06:29.579Z,92.69
2019-05-21T09:09:49.759Z,92.75
2019-05-21T09:12:59.001Z,91.80
2019-05-21T09:16:12.795Z,92.10
2019-05-21T09:19:26.537Z,91.97
2019-05-21T09:22:40.388Z,91.37
2019-05-21T09:25:54.518Z,91.00
2019-05-21T09:29:08.217Z,91.32
2019-05-21T09:32:22.216Z,92.14
2019-05-21T09:35:36.023Z,91.93
2019-05-21T09:38:49.794Z,92.30
2019-05-21T09:42:03.655Z,92.23
2019-05-21T09:45:18.137Z,92.30
2019-05-21T09:48:32.073Z,92.27
2019-05-21T09:51:45.821Z,92.48
2019-05-21T09:54:59.759Z,92.37
2019-05-21T09:58:33.237Z,91.82
2019-05-21T10:01:48.993Z,92.00
2019-05-21T10:05:03.271Z,92.14
2019-05-21T10:08:17.060Z,92.43
2019-05-21T10:11:31.377Z,92.16
2019-05-21T10:14:45.341Z,92.11
2019-05-21T10:18:00.272Z,92.01
2019-05-21T10:21:14.922Z,92.04
2019-05-21T10:24:30.820Z,92.25
2019-05-21T10:31:23.089Z,92.00
2019-05-21T10:34:36.762Z,91.48
2019-05-21T10:37:54.950Z,91.78
2019-05-21T10:41:06.416Z,92.01
2019-05-21T10:44:20.111Z,92.33
2019-05-21T10:47:33.875Z,91.32
2019-05-21T10:50:47.471Z,91.90
2019-05-21T10:54:01.345Z,91.88
2019-05-21T10:57:15.149Z,91.42
2019-05-21T11:00:29.341Z,91.94
2019-05-21T11:04:01.215Z,91.41
2019-05-21T11:07:16.449Z,91.44
2019-05-21T11:10:29.941Z,91.64
2019-05-21T11:13:43.682Z,92.10
2019-05-21T11:16:57.270Z,92.43
2019-05-21T11:20:11.931Z,92.02
2019-05-21T11:23:25.552Z,91.61
2019-05-21T11:26:39.073Z,91.69
2019-05-21T11:29:52.997Z,91.47
2019-05-21T11:33:07.022Z,90.94
2019-05-21T11:36:21.312Z,91.51
2019-05-21T11:39:34.782Z,91.36
2019-05-21T11:42:48.475Z,91.06
2019-05-21T11:46:03.066Z,91.26
2019-05-21T11:49:17.310Z,91.89
2019-05-21T11:52:30.829Z,92.30
2019-05-21T11:55:44.658Z,91.82
2019-05-21T11:58:58.418Z,90.80
2019-05-21T12:02:12.239Z,91.91
2019-05-21T12:05:25.855Z,91.09
2019-05-21T12:08:54.091Z,90.85
2019-05-21T12:11:55.207Z,91.14
2019-05-21T12:16:38.677Z,91.33
2019-05-21T12:19:52.622Z,91.67
2019-05-21T12:23:06.351Z,91.25
2019-05-21T12:26:20.185Z,91.37
2019-05-21T12:29:36.555Z,91.16
2019-05-21T12:32:50.434Z,90.88
2019-05-21T12:36:07.528Z,90.41
2019-05-21T12:39:21.148Z,90.93
2019-05-21T12:42:34.973Z,90.94
2019-05-21T12:45:48.529Z,91.23
2019-05-21T12:49:02.558Z,90.42
2019-05-21T12:52:16.251Z,91.17
2019-05-21T12:55:29.815Z,90.81
2019-05-21T12:58:43.627Z,90.55
2019-05-21T13:01:57.444Z,90.32
2019-05-21T13:05:13.038Z,90.88
2019-05-21T13:08:26.816Z,91.09
2019-05-21T13:11:40.594Z,90.85
2019-05-21T13:14:54.301Z,91.70
2019-05-21T13:18:08.124Z,91.53
2019-05-21T13:21:21.985Z,91.30
2019-05-21T13:24:35.829Z,90.97
2019-05-21T13:27:49.908Z,91.12
2019-05-21T13:31:04.029Z,90.08
2019-05-21T13:34:18.115Z,90.24
2019-05-21T13:37:31.894Z,90.66
2019-05-21T13:40:47.105Z,90.79
2019-05-21T13:44:00.684Z,90.34
2019-05-21T13:47:14.355Z,90.87
2019-05-21T13:50:28.172Z,90.92
2019-05-21T13:53:42.118Z,90.54
2019-05-21T13:56:55.825Z,90.43
2019-05-21T14:00:12.597Z,90.83
2019-05-21T14:03:26.243Z,91.01
2019-05-21T14:06:40.009Z,90.56
2019-05-21T14:10:13.197Z,90.40
2019-05-21T14:13:09.467Z,91.13
2019-05-21T14:16:23.090Z,90.87
2019-05-21T14:19:36.783Z,90.20
2019-05-21T14:22:50.373Z,90.87
2019-05-21T14:26:04.185Z,91.27
2019-05-21T14:29:17.769Z,90.61
2019-05-21T14:32:31.246Z,90.67
2019-05-21T14:35:45.054Z,90.13
2019-05-21T14:38:58.557Z,90.20
2019-05-21T14:42:12.135Z,90.39
2019-05-21T14:45:29.020Z,89.95
2019-05-21T14:48:41.800Z,90.04
2019-05-21T14:51:55.307Z,90.47
2019-05-21T14:55:09.397Z,90.61
2019-05-21T14:58:23.183Z,91.47
2019-05-21T15:01:36.687Z,91.25
2019-05-21T15:04:50.314Z,90.42
2019-05-21T15:08:04.072Z,91.07
2019-05-21T15:11:17.577Z,91.21
2019-05-21T15:14:31.070Z,90.83
2019-05-21T15:17:44.671Z,90.55
2019-05-21T15:21:06.495Z,90.69
2019-05-21T15:24:20.486Z,90.64
2019-05-21T15:27:34.019Z,90.33
2019-05-21T15:30:47.965Z,89.91
2019-05-21T15:34:01.902Z,89.94
2019-05-21T15:37:15.513Z,89.70
2019-05-21T15:40:29.214Z,89.96
2019-05-21T15:43:42.814Z,90.28
2019-05-21T15:46:56.410Z,90.67
2019-05-21T15:50:10.805Z,90.90
2019-05-21T15:53:24.301Z,90.78
2019-05-21T15:56:37.893Z,90.95
2019-05-21T15:59:51.478Z,90.67
2019-05-21T16:03:05.121Z,90.27
2019-05-21T16:06:18.796Z,90.10
2019-05-21T16:09:32.304Z,90.37
2019-05-21T16:12:46.152Z,90.42
2019-05-21T16:15:59.640Z,90.55
2019-05-21T16:19:13.224Z,90.18
2019-05-21T16:22:26.974Z,90.35
2019-05-21T16:25:40.543Z,90.22
2019-05-21T16:28:54.107Z,89.79
2019-05-21T16:32:07.806Z,89.65
2019-05-21T16:35:21.710Z,89.62
2019-05-21T16:38:35.454Z,89.75
2019-05-21T16:41:48.938Z,90.17
2019-05-21T16:45:04.244Z,89.96
2019-05-21T16:48:18.265Z,90.11
2019-05-21T16:51:31.919Z,90.31
2019-05-21T16:54:45.550Z,90.31
2019-05-21T16:57:59.578Z,89.89
2019-05-21T17:01:13.919Z,89.80
2019-05-21T17:04:27.536Z,90.21
2019-05-21T17:07:41.278Z,90.57
2019-05-21T17:10:54.870Z,90.41
2019-05-21T17:14:08.488Z,90.55
2019-05-21T17:17:22.506Z,90.45
2019-05-21T17:20:36.019Z,90.55
2019-05-21T17:23:49.740Z,90.42
2019-05-21T17:27:03.742Z,90.55
2019-05-21T17:30:18.009Z,90.65
2019-05-21T17:33:31.918Z,90.53
2019-05-21T17:36:45.607Z,90.25
2019-05-21T17:39:59.219Z,90.44
2019-05-21T17:43:13.071Z,90.80
2019-05-21T17:46:26.846Z,90.68
2019-05-21T17:49:41.116Z,90.52
2019-05-21T17:52:54.719Z,90.07
2019-05-21T17:56:08.701Z,89.83
2019-05-21T17:59:22.360Z,90.15
2019-05-21T18:02:36.273Z,90.00
2019-05-21T18:05:50.503Z,89.43
2019-05-21T18:09:07.543Z,89.48
2019-05-21T18:12:31.678Z,89.51
2019-05-21T18:15:36.570Z,89.70
2019-05-21T18:18:50.698Z,89.68
2019-05-21T18:22:05.910Z,89.99
2019-05-21T18:25:19.571Z,90.04
2019-05-21T18:28:33.593Z,90.24
2019-05-21T18:31:47.917Z,90.53
2019-05-21T18:35:01.632Z,90.48
2019-05-21T18:38:15.868Z,90.63
2019-05-21T18:41:29.468Z,90.47
2019-05-21T18:44:42.956Z,90.35
2019-05-21T18:47:56.481Z,90.28
2019-05-21T18:51:10.063Z,90.20
2019-05-21T18:54:23.935Z,90.18
2019-05-21T18:57:37.527Z,90.53
2019-05-21T19:00:51.018Z,90.70
2019-05-21T19:04:04.598Z,90.28
2019-05-21T19:07:18.289Z,90.09
2019-05-21T19:10:32.205Z,90.27
2019-05-21T19:13:45.901Z,90.67
2019-05-21T19:16:59.476Z,90.70
2019-05-21T19:20:13.878Z,90.81
2019-05-21T19:23:27.422Z,91.25
2019-05-21T19:26:43.926Z,91.52
2019-05-21T19:29:56.325Z,91.35
2019-05-21T19:33:09.919Z,90.87
2019-05-21T19:36:23.473Z,90.27
2019-05-21T19:39:37.883Z,90.31
2019-05-21T19:42:55.381Z,90.36
2019-05-21T19:46:07.090Z,90.59
2019-05-21T19:49:20.575Z,90.80
2019-05-21T19:52:34.182Z,90.71
2019-05-21T19:55:47.884Z,91.06
2019-05-21T19:59:01.752Z,90.95
2019-05-21T20:02:15.537Z,90.94
2019-05-21T20:05:29.934Z,90.82
2019-05-21T20:08:43.743Z,90.98
2019-05-21T20:11:57.197Z,90.91
2019-05-21T20:15:11.995Z,90.81
2019-05-21T20:18:25.685Z,90.74
2019-05-21T20:21:39.181Z,90.70
2019-05-21T20:24:52.966Z,90.71
2019-05-21T20:28:10.555Z,90.70
2019-05-21T20:31:23.111Z,90.67
2019-05-21T20:34:36.719Z,90.80
2019-05-21T20:37:51.388Z,91.09
2019-05-21T20:41:05.463Z,91.04
2019-05-21T20:44:19.461Z,90.90
2019-05-21T20:47:33.089Z,90.77
2019-05-21T20:50:47.025Z,90.57
2019-05-21T20:54:01.000Z,90.42
2019-05-21T20:57:14.519Z,90.63
2019-05-21T21:00:37.914Z,90.58
2019-05-21T21:03:51.889Z,90.13
2019-05-21T21:07:06.687Z,90.00
2019-05-21T21:10:20.710Z,90.03
2019-05-21T21:16:38.886Z,89.82
2019-05-21T21:19:52.570Z,90.25
2019-05-21T21:23:06.257Z,90.39
2019-05-21T21:26:20.903Z,90.43
2019-05-21T21:29:34.926Z,90.59
2019-05-21T21:32:48.989Z,90.69
2019-05-21T21:36:02.692Z,90.44
2019-05-21T21:39:16.526Z,90.65
2019-05-21T21:42:30.297Z,90.19
2019-05-21T21:45:43.906Z,90.30
2019-05-21T21:48:57.940Z,90.58
2019-05-21T21:52:14.013Z,90.92
2019-05-21T21:55:27.521Z,90.70
2019-05-21T21:58:41.332Z,90.89
2019-05-21T22:02:00.411Z,90.83
2019-05-21T22:05:14.291Z,90.55
2019-05-21T22:08:28.209Z,90.45
2019-05-21T22:11:42.197Z,90.45
2019-05-21T22:14:57.504Z,90.21
2019-05-21T22:18:12.429Z,90.30
2019-05-21T22:21:26.418Z,90.31
2019-05-21T22:24:40.410Z,90.43
2019-05-21T22:27:54.187Z,90.41
2019-05-21T22:31:07.867Z,90.56
2019-05-21T22:34:22.281Z,90.84
2019-05-21T22:37:35.767Z,90.72
2019-05-21T22:40:49.451Z,91.04
2019-05-21T22:44:03.394Z,91.11
2019-05-21T22:47:17.009Z,91.07
2019-05-21T22:50:30.490Z,91.31
2019-05-21T22:53:44.191Z,91.26
2019-05-21T22:56:57.888Z,91.10
2019-05-21T23:00:12.242Z,91.31
2019-05-21T23:03:27.422Z,91.42
2019-05-21T23:06:40.913Z,91.51
2019-05-21T23:09:54.679Z,91.62
2019-05-21T23:13:08.176Z,91.47
2019-05-21T23:16:21.779Z,91.43
2019-05-21T23:19:36.072Z,91.47
2019-05-21T23:22:51.466Z,91.35
2019-05-21T23:26:07.185Z,91.27
2019-05-21T23:29:21.470Z,91.34
2019-05-21T23:32:37.140Z,91.48
2019-05-21T23:35:51.630Z,91.43
2019-05-21T23:39:09.563Z,91.37
2019-05-21T23:42:29.559Z,91.29
2019-05-21T23:45:39.039Z,91.37
2019-05-21T23:48:52.534Z,91.27
2019-05-21T23:52:06.229Z,91.39
2019-05-21T23:55:19.697Z,91.50
2019-05-21T23:58:33.159Z,91.60
